createdAt,value
2017-06-13T00:00:27.785Z,85.30
2017-06-13T00:01:29.208Z,84.77
2017-06-13T00:02:30.634Z,84.67
2017-06-13T00:03:32.067Z,84.00
2017-06-13T00:04:33.497Z,83.23
2017-06-13T00:05:34.920Z,84.53
2017-06-13T00:06:36.345Z,84.25
2017-06-13T00:07:37.779Z,83.19
2017-06-13T00:08:39.203Z,84.05
2017-06-13T00:09:40.633Z,83.86
2017-06-13T00:10:42.051Z,83.71
2017-06-13T00:11:43.484Z,83.71
2017-06-13T00:12:44.916Z,84.19
2017-06-13T00:13:46.345Z,83.95
2017-06-13T00:14:47.777Z,84.15
2017-06-13T00:15:49.204Z,84.44
2017-06-13T00:16:50.646Z,84.00
2017-06-13T00:17:52.079Z,84.09
2017-06-13T00:18:53.513Z,84.05
2017-06-13T00:19:54.942Z,83.86
2017-06-13T00:20:56.367Z,83.95
2017-06-13T00:21:57.798Z,83.52
2017-06-13T00:22:59.220Z,84.09
2017-06-13T00:24:00.658Z,83.71
2017-06-13T00:25:02.081Z,84.15
2017-06-13T00:26:03.509Z,84.53
2017-06-13T00:27:04.937Z,83.42
2017-06-13T00:28:06.366Z,82.65
2017-06-13T00:29:07.798Z,83.23
2017-06-13T00:30:09.226Z,83.52
2017-06-13T00:31:10.652Z,83.23
2017-06-13T00:32:12.082Z,83.76
2017-06-13T00:33:13.521Z,83.09
2017-06-13T00:34:14.978Z,83.76
2017-06-13T00:35:16.400Z,84.82
2017-06-13T00:36:17.827Z,84.63
2017-06-13T00:37:19.253Z,84.34
2017-06-13T00:38:20.789Z,83.95
2017-06-13T00:39:22.219Z,84.91
2017-06-13T00:40:23.645Z,83.23
2017-06-13T00:41:25.070Z,83.19
2017-06-13T00:42:26.503Z,84.15
2017-06-13T00:43:27.931Z,84.34
2017-06-13T00:44:29.367Z,84.15
2017-06-13T00:45:30.869Z,84.82
2017-06-13T00:46:32.293Z,84.91
2017-06-13T00:47:33.721Z,84.15
2017-06-13T00:48:35.154Z,85.21
2017-06-13T00:49:36.636Z,83.86
2017-06-13T00:50:38.070Z,84.44
2017-06-13T00:51:39.497Z,84.53
2017-06-13T00:52:40.924Z,85.01
2017-06-13T00:53:42.362Z,84.25
2017-06-13T00:54:43.797Z,83.76
2017-06-13T00:55:45.306Z,84.53
2017-06-13T00:56:46.740Z,83.95
2017-06-13T00:57:48.172Z,84.05
2017-06-13T00:58:49.601Z,85.11
2017-06-13T00:59:51.074Z,84.72
2017-06-13T01:00:52.494Z,84.91
2017-06-13T01:01:53.929Z,86.54
2017-06-13T01:02:55.426Z,84.53
2017-06-13T01:03:56.872Z,85.30
2017-06-13T01:04:58.314Z,84.72
2017-06-13T01:05:59.739Z,85.01
2017-06-13T01:07:01.192Z,84.44
2017-06-13T01:08:02.624Z,84.44
2017-06-13T01:09:04.057Z,84.91
2017-06-13T01:10:05.488Z,84.63
2017-06-13T01:11:06.928Z,84.82
2017-06-13T01:12:08.358Z,85.11
2017-06-13T01:13:09.782Z,84.63
2017-06-13T01:14:11.216Z,84.72
2017-06-13T01:15:12.656Z,84.82
2017-06-13T01:16:14.086Z,84.82
2017-06-13T01:17:15.579Z,84.82
2017-06-13T01:18:17.081Z,85.30
2017-06-13T01:19:18.514Z,85.78
2017-06-13T01:20:19.937Z,85.21
2017-06-13T01:21:21.365Z,85.68
2017-06-13T01:22:22.791Z,85.97
2017-06-13T01:23:24.224Z,85.39
2017-06-13T01:24:25.650Z,85.21
2017-06-13T01:25:27.088Z,85.30
2017-06-13T01:26:28.520Z,85.11
2017-06-13T01:27:29.948Z,85.58
2017-06-13T01:28:31.392Z,85.30
2017-06-13T01:29:32.826Z,85.88
2017-06-13T01:30:34.252Z,85.30
2017-06-13T01:31:35.676Z,85.30
2017-06-13T01:32:37.113Z,85.06
2017-06-13T01:33:38.542Z,85.06
2017-06-13T01:34:39.973Z,85.93
2017-06-13T01:35:41.391Z,85.30
2017-06-13T01:36:42.815Z,85.68
2017-06-13T01:37:44.245Z,85.58
2017-06-13T01:38:45.677Z,85.11
2017-06-13T01:39:47.109Z,85.45
2017-06-13T01:40:48.534Z,86.31
2017-06-13T01:41:49.962Z,86.02
2017-06-13T01:42:51.396Z,86.12
2017-06-13T01:43:52.827Z,86.16
2017-06-13T01:44:54.255Z,87.55
2017-06-13T01:45:55.686Z,86.98
2017-06-13T01:46:57.113Z,87.46
2017-06-13T01:47:58.540Z,86.79
2017-06-13T01:48:59.968Z,87.37
2017-06-13T01:50:01.392Z,86.31
2017-06-13T01:51:02.820Z,86.83
2017-06-13T01:52:04.246Z,86.83
2017-06-13T01:53:05.676Z,86.98
2017-06-13T01:54:07.105Z,86.35
2017-06-13T01:55:08.538Z,85.64
2017-06-13T01:56:09.962Z,86.69
2017-06-13T01:57:11.397Z,86.50
2017-06-13T01:58:12.826Z,87.37
2017-06-13T01:59:14.246Z,86.69
2017-06-13T02:00:15.681Z,87.46
2017-06-13T02:01:17.123Z,86.88
2017-06-13T02:02:18.549Z,87.27
2017-06-13T02:03:19.977Z,87.46
2017-06-13T02:04:21.402Z,86.79
2017-06-13T02:05:22.837Z,86.60
2017-06-13T02:06:24.268Z,86.74
2017-06-13T02:07:25.691Z,86.60
2017-06-13T02:08:27.123Z,86.64
2017-06-13T02:09:28.546Z,86.31
2017-06-13T02:10:29.970Z,86.88
2017-06-13T02:11:31.399Z,87.46
2017-06-13T02:12:32.826Z,87.74
2017-06-13T02:13:34.249Z,86.88
2017-06-13T02:14:35.696Z,86.50
2017-06-13T02:15:37.124Z,86.79
2017-06-13T02:16:38.551Z,87.65
2017-06-13T02:17:39.978Z,87.37
2017-06-13T02:18:41.405Z,88.13
2017-06-13T02:19:42.831Z,89.57
2017-06-13T02:20:44.260Z,88.42
2017-06-13T02:21:45.686Z,87.94
2017-06-13T02:22:47.123Z,88.42
2017-06-13T02:23:48.547Z,88.51
2017-06-13T02:24:49.970Z,88.23
2017-06-13T02:25:51.401Z,87.46
2017-06-13T02:26:52.831Z,88.99
2017-06-13T02:27:54.256Z,88.56
2017-06-13T02:28:55.684Z,88.90
2017-06-13T02:29:57.120Z,88.90
2017-06-13T02:30:58.637Z,88.80
2017-06-13T02:32:00.069Z,89.04
2017-06-13T02:33:01.497Z,88.90
2017-06-13T02:34:02.926Z,88.70
2017-06-13T02:35:04.358Z,88.13
2017-06-13T02:36:05.785Z,88.32
2017-06-13T02:37:07.213Z,89.09
2017-06-13T02:38:08.646Z,88.99
2017-06-13T02:39:10.069Z,88.99
2017-06-13T02:40:11.497Z,88.70
2017-06-13T02:41:12.925Z,88.70
2017-06-13T02:42:14.351Z,88.90
2017-06-13T02:43:15.783Z,88.70
2017-06-13T02:44:17.215Z,88.61
2017-06-13T02:45:18.637Z,88.03
2017-06-13T02:46:20.064Z,88.51
2017-06-13T02:47:21.491Z,89.47
2017-06-13T02:48:22.921Z,89.57
2017-06-13T02:49:24.344Z,89.66
2017-06-13T02:50:25.772Z,89.47
2017-06-13T02:51:27.199Z,90.14
2017-06-13T02:52:28.625Z,88.90
2017-06-13T02:53:30.053Z,89.76
2017-06-13T02:54:31.485Z,89.57
2017-06-13T02:55:32.912Z,88.70
2017-06-13T02:56:34.345Z,89.37
2017-06-13T02:57:35.768Z,89.57
2017-06-13T02:58:37.200Z,89.81
2017-06-13T02:59:38.628Z,90.14
2017-06-13T03:00:40.057Z,89.57
2017-06-13T03:01:41.487Z,89.86
2017-06-13T03:02:42.911Z,89.86
2017-06-13T03:03:44.333Z,89.76
2017-06-13T03:04:45.764Z,89.76
2017-06-13T03:05:47.193Z,89.28
2017-06-13T03:06:48.622Z,91.05
2017-06-13T03:07:50.062Z,90.48
2017-06-13T03:08:51.484Z,90.14
2017-06-13T03:09:52.907Z,89.95
2017-06-13T03:10:54.347Z,90.14
2017-06-13T03:11:55.787Z,90.53
2017-06-13T03:12:57.218Z,90.23
2017-06-13T03:13:58.642Z,90.05
2017-06-13T03:15:00.068Z,90.29
2017-06-13T03:16:01.490Z,91.25
2017-06-13T03:17:02.932Z,90.23
2017-06-13T03:18:04.358Z,90.53
2017-06-13T03:19:05.786Z,90.91
2017-06-13T03:20:07.215Z,90.23
2017-06-13T03:21:08.642Z,89.95
2017-06-13T03:22:10.078Z,89.95
2017-06-13T03:23:11.507Z,90.53
2017-06-13T03:24:12.940Z,90.72
2017-06-13T03:25:14.365Z,91.10
2017-06-13T03:26:15.793Z,90.43
2017-06-13T03:27:17.219Z,90.62
2017-06-13T03:28:18.646Z,90.53
2017-06-13T03:29:20.072Z,89.86
2017-06-13T03:30:21.507Z,90.14
2017-06-13T03:31:22.935Z,91.10
2017-06-13T03:32:24.364Z,91.34
2017-06-13T03:33:25.790Z,92.15
2017-06-13T03:34:27.221Z,91.19
2017-06-13T03:35:28.647Z,91.25
2017-06-13T03:36:30.080Z,91.92
2017-06-13T03:37:31.503Z,91.92
2017-06-13T03:38:32.935Z,91.34
2017-06-13T03:39:34.362Z,91.92
2017-06-13T03:40:35.786Z,92.40
2017-06-13T03:41:37.221Z,92.30
2017-06-13T03:42:38.759Z,92.68
2017-06-13T03:43:40.193Z,92.49
2017-06-13T03:44:41.617Z,91.15
2017-06-13T03:45:43.047Z,91.39
2017-06-13T03:46:45.269Z,92.68
2017-06-13T03:47:46.695Z,92.40
2017-06-13T03:48:48.123Z,93.45
2017-06-13T03:49:49.556Z,92.87
2017-06-13T03:50:50.985Z,92.40
2017-06-13T03:51:52.418Z,92.54
2017-06-13T03:52:53.847Z,91.86
2017-06-13T03:53:55.275Z,92.35
2017-06-13T03:54:56.708Z,92.01
2017-06-13T03:55:58.135Z,92.30
2017-06-13T03:56:59.569Z,92.97
2017-06-13T03:58:00.994Z,93.64
2017-06-13T03:59:02.428Z,94.02
2017-06-13T04:00:03.852Z,93.93
2017-06-13T04:01:05.277Z,93.07
2017-06-13T04:02:06.706Z,92.92
2017-06-13T04:03:08.136Z,92.68
2017-06-13T04:04:09.568Z,93.64
2017-06-13T04:05:11.005Z,92.68
2017-06-13T04:06:12.428Z,93.35
2017-06-13T04:07:13.875Z,93.45
2017-06-13T04:08:15.307Z,93.54
2017-06-13T04:09:16.736Z,93.26
2017-06-13T04:10:18.164Z,94.50
2017-06-13T04:11:19.589Z,93.64
2017-06-13T04:12:21.022Z,94.02
2017-06-13T04:13:22.450Z,94.60
2017-06-13T04:14:23.876Z,94.60
2017-06-13T04:15:25.309Z,94.50
2017-06-13T04:16:26.739Z,93.74
2017-06-13T04:17:28.173Z,93.59
2017-06-13T04:18:29.595Z,93.83
2017-06-13T04:19:31.032Z,93.40
2017-06-13T04:20:32.452Z,94.31
2017-06-13T04:21:33.893Z,94.50
2017-06-13T04:22:35.327Z,93.74
2017-06-13T04:23:36.764Z,94.40
2017-06-13T04:24:38.199Z,94.40
2017-06-13T04:25:39.626Z,95.36
2017-06-13T04:26:41.058Z,94.50
2017-06-13T04:27:42.489Z,94.21
2017-06-13T04:28:43.919Z,93.49
2017-06-13T04:29:45.347Z,92.78
2017-06-13T04:30:46.780Z,92.82
2017-06-13T04:31:48.206Z,93.45
2017-06-13T04:32:49.639Z,93.88
2017-06-13T04:33:51.070Z,93.40
2017-06-13T04:34:52.500Z,92.54
2017-06-13T04:35:53.931Z,92.73
2017-06-13T04:36:55.360Z,92.82
2017-06-13T04:37:56.800Z,93.30
2017-06-13T04:38:58.223Z,92.92
2017-06-13T04:39:59.648Z,93.49
2017-06-13T04:41:01.116Z,93.78
2017-06-13T04:42:02.544Z,92.92
2017-06-13T04:43:03.971Z,92.73
2017-06-13T04:44:05.415Z,92.82
2017-06-13T04:45:06.884Z,92.54
2017-06-13T04:46:08.306Z,92.73
2017-06-13T04:47:09.740Z,92.82
2017-06-13T04:48:11.172Z,92.35
2017-06-13T04:49:12.602Z,91.77
2017-06-13T04:50:14.037Z,93.02
2017-06-13T04:51:15.467Z,92.44
2017-06-13T04:52:16.970Z,92.73
2017-06-13T04:53:18.408Z,92.82
2017-06-13T04:54:19.845Z,92.73
2017-06-13T04:55:21.280Z,93.49
2017-06-13T04:56:22.705Z,92.82
2017-06-13T04:57:24.136Z,93.49
2017-06-13T04:58:25.573Z,93.69
2017-06-13T04:59:27.013Z,92.82
2017-06-13T05:00:28.446Z,93.88
2017-06-13T05:01:29.881Z,93.49
2017-06-13T05:02:31.325Z,92.82
2017-06-13T05:03:32.762Z,92.73
2017-06-13T05:04:34.206Z,93.49
2017-06-13T05:05:35.629Z,92.82
2017-06-13T05:06:37.055Z,92.54
2017-06-13T05:07:38.498Z,93.74
2017-06-13T05:08:39.928Z,93.59
2017-06-13T05:09:41.356Z,94.35
2017-06-13T05:10:42.784Z,94.64
2017-06-13T05:11:44.218Z,93.49
2017-06-13T05:12:45.650Z,94.64
2017-06-13T05:13:47.080Z,94.55
2017-06-13T05:14:48.506Z,94.64
2017-06-13T05:15:49.938Z,93.78
2017-06-13T05:16:51.372Z,94.64
2017-06-13T05:17:52.800Z,94.64
2017-06-13T05:18:54.228Z,94.93
2017-06-13T05:19:55.665Z,94.74
2017-06-13T05:20:57.086Z,95.41
2017-06-13T05:21:58.520Z,94.35
2017-06-13T05:22:59.957Z,94.45
2017-06-13T05:24:01.391Z,93.98
2017-06-13T05:25:02.823Z,94.64
2017-06-13T05:26:04.259Z,94.64
2017-06-13T05:27:05.690Z,93.40
2017-06-13T05:28:07.122Z,93.88
2017-06-13T05:29:08.554Z,93.98
2017-06-13T05:30:09.977Z,94.64
2017-06-13T05:31:11.406Z,94.74
2017-06-13T05:32:12.837Z,94.55
2017-06-13T05:33:14.284Z,95.41
2017-06-13T05:34:15.712Z,95.70
2017-06-13T05:35:17.138Z,94.55
2017-06-13T05:36:18.567Z,94.64
2017-06-13T05:37:19.996Z,94.35
2017-06-13T05:38:21.431Z,93.88
2017-06-13T05:39:22.857Z,94.64
2017-06-13T05:40:24.289Z,95.41
2017-06-13T05:41:25.718Z,94.55
2017-06-13T05:42:27.143Z,94.55
2017-06-13T05:43:28.578Z,94.64
2017-06-13T05:44:30.010Z,94.31
2017-06-13T05:45:31.453Z,93.78
2017-06-13T05:46:32.879Z,94.74
2017-06-13T05:47:34.305Z,94.74
2017-06-13T05:48:35.741Z,94.89
2017-06-13T05:49:37.169Z,94.35
2017-06-13T05:50:38.602Z,94.59
2017-06-13T05:51:40.044Z,94.35
2017-06-13T05:52:41.474Z,94.35
2017-06-13T05:53:42.901Z,93.93
2017-06-13T05:54:44.323Z,94.31
2017-06-13T05:55:45.759Z,94.89
2017-06-13T05:56:47.191Z,93.73
2017-06-13T05:57:48.625Z,94.59
2017-06-13T05:58:50.063Z,94.50
2017-06-13T05:59:51.494Z,94.40
2017-06-13T06:00:52.929Z,94.02
2017-06-13T06:01:54.357Z,93.44
2017-06-13T06:02:55.789Z,93.73
2017-06-13T06:03:57.220Z,95.26
2017-06-13T06:04:58.644Z,94.98
2017-06-13T06:06:00.073Z,93.63
2017-06-13T06:07:01.497Z,94.31
2017-06-13T06:08:02.933Z,93.63
2017-06-13T06:09:04.361Z,94.21
2017-06-13T06:10:05.798Z,93.44
2017-06-13T06:11:07.222Z,93.40
2017-06-13T06:12:08.645Z,93.78
2017-06-13T06:13:10.084Z,92.97
2017-06-13T06:14:11.516Z,94.40
2017-06-13T06:15:12.943Z,93.68
2017-06-13T06:16:14.370Z,93.11
2017-06-13T06:17:15.801Z,94.17
2017-06-13T06:18:17.324Z,94.79
2017-06-13T06:19:18.761Z,95.56
2017-06-13T06:20:20.202Z,94.59
2017-06-13T06:21:21.632Z,93.88
2017-06-13T06:22:23.072Z,93.88
2017-06-13T06:23:24.503Z,95.21
2017-06-13T06:24:25.937Z,93.01
2017-06-13T06:25:27.362Z,92.82
2017-06-13T06:26:28.794Z,93.30
2017-06-13T06:27:30.226Z,92.63
2017-06-13T06:28:31.658Z,92.82
2017-06-13T06:29:33.096Z,92.44
2017-06-13T06:30:34.549Z,92.82
2017-06-13T06:31:35.982Z,92.54
2017-06-13T06:32:37.417Z,92.82
2017-06-13T06:33:38.875Z,92.96
2017-06-13T06:34:40.311Z,91.86
2017-06-13T06:35:41.744Z,92.54
2017-06-13T06:36:43.175Z,92.15
2017-06-13T06:37:44.599Z,92.19
2017-06-13T06:38:46.029Z,92.48
2017-06-13T06:39:47.473Z,92.48
2017-06-13T06:40:48.897Z,91.81
2017-06-13T06:41:50.335Z,92.00
2017-06-13T06:42:51.771Z,92.00
2017-06-13T06:43:53.202Z,91.33
2017-06-13T06:44:54.631Z,90.56
2017-06-13T06:45:56.059Z,90.18
2017-06-13T06:46:57.493Z,90.95
2017-06-13T06:47:58.925Z,90.66
2017-06-13T06:49:00.353Z,90.56
2017-06-13T06:50:01.782Z,90.75
2017-06-13T06:51:03.210Z,89.99
2017-06-13T06:52:04.643Z,90.33
2017-06-13T06:53:06.067Z,91.67
2017-06-13T06:54:07.509Z,91.48
2017-06-13T06:55:08.935Z,91.77
2017-06-13T06:56:10.366Z,92.05
2017-06-13T06:57:11.801Z,91.67
2017-06-13T06:58:13.228Z,91.96
2017-06-13T06:59:14.664Z,91.52
2017-06-13T07:00:16.112Z,91.14
2017-06-13T07:01:17.542Z,90.85
2017-06-13T07:02:18.971Z,90.66
2017-06-13T07:03:20.401Z,89.61
2017-06-13T07:04:21.833Z,89.65
2017-06-13T07:05:23.265Z,89.75
2017-06-13T07:06:24.694Z,89.84
2017-06-13T07:07:31.696Z,89.32
2017-06-13T07:08:32.872Z,90.03
2017-06-13T07:09:34.311Z,89.07
2017-06-13T07:10:35.749Z,89.65
2017-06-13T07:11:37.178Z,89.41
2017-06-13T07:12:38.620Z,90.18
2017-06-13T07:13:40.053Z,88.65
2017-06-13T07:14:41.491Z,88.74
2017-06-13T07:15:42.918Z,88.74
2017-06-13T07:16:44.354Z,89.70
2017-06-13T07:17:45.793Z,89.12
2017-06-13T07:18:47.224Z,89.07
2017-06-13T07:19:48.662Z,87.82
2017-06-13T07:20:50.097Z,87.73
2017-06-13T07:21:51.532Z,85.85
2017-06-13T07:22:52.961Z,85.75
2017-06-13T07:23:54.395Z,86.91
2017-06-13T07:24:55.832Z,86.09
2017-06-13T07:25:57.260Z,86.43
2017-06-13T07:26:58.689Z,88.06
2017-06-13T07:28:00.115Z,87.87
2017-06-13T07:29:01.545Z,88.25
2017-06-13T07:30:02.980Z,87.01
2017-06-13T07:31:04.409Z,86.96
2017-06-13T07:32:05.839Z,87.73
2017-06-13T07:33:07.265Z,88.49
2017-06-13T07:34:08.697Z,89.65
2017-06-13T07:35:10.133Z,87.78
2017-06-13T07:36:11.567Z,88.31
2017-06-13T07:37:13.001Z,88.59
2017-06-13T07:38:14.428Z,88.69
2017-06-13T07:39:15.860Z,89.41
2017-06-13T07:40:17.297Z,88.88
2017-06-13T07:41:18.738Z,88.54
2017-06-13T07:42:20.174Z,85.95
2017-06-13T07:43:21.608Z,85.66
2017-06-13T07:44:23.038Z,86.43
2017-06-13T07:45:24.478Z,84.80
2017-06-13T07:46:25.908Z,84.99
2017-06-13T07:47:27.344Z,85.66
2017-06-13T07:48:28.772Z,85.18
2017-06-13T07:49:30.204Z,86.05
2017-06-13T07:50:31.648Z,86.43
2017-06-13T07:51:33.074Z,87.44
2017-06-13T07:52:34.509Z,87.82
2017-06-13T07:53:35.946Z,86.58
2017-06-13T07:54:37.372Z,87.15
2017-06-13T07:55:38.803Z,86.96
2017-06-13T07:56:40.239Z,87.15
2017-06-13T07:57:41.669Z,88.11
2017-06-13T07:58:43.106Z,86.38
2017-06-13T07:59:44.540Z,85.42
2017-06-13T08:00:45.983Z,85.71
2017-06-13T08:01:47.414Z,86.00
2017-06-13T08:02:48.847Z,87.01
2017-06-13T08:03:50.279Z,86.72
2017-06-13T08:04:51.712Z,86.87
2017-06-13T08:05:53.145Z,88.25
2017-06-13T08:06:54.584Z,86.91
2017-06-13T08:07:56.013Z,86.05
2017-06-13T08:08:57.443Z,86.43
2017-06-13T08:09:58.874Z,87.44
2017-06-13T08:11:00.318Z,86.29
2017-06-13T08:12:01.752Z,87.39
2017-06-13T08:13:03.181Z,87.10
2017-06-13T08:14:04.611Z,86.72
2017-06-13T08:15:06.054Z,86.72
2017-06-13T08:16:07.492Z,85.85
2017-06-13T08:17:08.921Z,85.61
2017-06-13T08:18:10.352Z,84.84
2017-06-13T08:19:11.784Z,84.55
2017-06-13T08:20:14.187Z,84.74
2017-06-13T08:21:15.616Z,83.87
2017-06-13T08:22:17.047Z,83.92
2017-06-13T08:23:18.486Z,83.83
2017-06-13T08:24:19.910Z,83.87
2017-06-13T08:25:21.346Z,83.11
2017-06-13T08:26:22.774Z,83.74
2017-06-13T08:27:24.222Z,84.41
2017-06-13T08:28:25.659Z,84.51
2017-06-13T08:29:27.100Z,83.54
2017-06-13T08:30:28.539Z,83.54
2017-06-13T08:31:29.972Z,84.17
2017-06-13T08:32:31.398Z,83.84
2017-06-13T08:33:32.859Z,85.18
2017-06-13T08:34:34.298Z,86.43
2017-06-13T08:35:35.738Z,85.51
2017-06-13T08:36:37.170Z,85.51
2017-06-13T08:37:38.598Z,85.22
2017-06-13T08:38:40.028Z,85.51
2017-06-13T08:39:41.489Z,86.38
2017-06-13T08:40:42.924Z,86.66
2017-06-13T08:41:44.359Z,85.08
2017-06-13T08:42:45.798Z,85.95
2017-06-13T08:43:47.282Z,86.28
2017-06-13T08:44:48.711Z,85.18
2017-06-13T08:45:50.146Z,85.89
2017-06-13T08:46:51.578Z,83.87
2017-06-13T08:47:53.029Z,83.78
2017-06-13T08:48:54.470Z,84.84
2017-06-13T08:49:55.915Z,83.34
2017-06-13T08:50:57.352Z,83.53
2017-06-13T08:51:58.782Z,83.44
2017-06-13T08:53:00.220Z,81.81
2017-06-13T08:54:01.659Z,83.63
2017-06-13T08:55:03.091Z,83.48
2017-06-13T08:56:04.522Z,83.63
2017-06-13T08:57:05.948Z,83.15
2017-06-13T08:58:07.377Z,82.67
2017-06-13T08:59:08.812Z,82.92
2017-06-13T09:00:10.238Z,85.51
2017-06-13T09:01:12.435Z,85.32
2017-06-13T09:02:13.871Z,85.22
2017-06-13T09:03:15.306Z,85.80
2017-06-13T09:04:16.741Z,85.80
2017-06-13T09:05:18.168Z,85.61
2017-06-13T09:06:19.604Z,86.28
2017-06-13T09:07:21.037Z,85.32
2017-06-13T09:08:22.470Z,85.13
2017-06-13T09:09:23.908Z,85.41
2017-06-13T09:10:25.339Z,85.22
2017-06-13T09:11:26.779Z,83.69
2017-06-13T09:12:28.208Z,83.78
2017-06-13T09:13:29.641Z,83.20
2017-06-13T09:14:31.069Z,83.20
2017-06-13T09:15:32.498Z,84.45
2017-06-13T09:16:33.936Z,85.13
2017-06-13T09:17:35.369Z,83.44
2017-06-13T09:18:36.806Z,82.96
2017-06-13T09:19:38.245Z,82.76
2017-06-13T09:20:39.682Z,82.52
2017-06-13T09:21:41.119Z,83.00
2017-06-13T09:22:42.560Z,82.14
2017-06-13T09:23:43.992Z,80.83
2017-06-13T09:24:45.434Z,78.94
2017-06-13T09:25:46.869Z,79.13
2017-06-13T09:26:48.310Z,78.94
2017-06-13T09:27:49.744Z,78.50
2017-06-13T09:28:51.175Z,79.46
2017-06-13T09:29:52.611Z,77.73
2017-06-13T09:30:54.055Z,75.99
2017-06-13T09:31:55.505Z,78.56
2017-06-13T09:32:56.938Z,77.59
2017-06-13T09:33:58.383Z,78.90
2017-06-13T09:34:59.820Z,79.77
2017-06-13T09:36:01.255Z,79.96
2017-06-13T09:37:02.688Z,80.83
2017-06-13T09:38:04.127Z,80.30
2017-06-13T09:39:05.559Z,80.40
2017-06-13T09:40:06.990Z,80.79
2017-06-13T09:41:08.432Z,80.50
2017-06-13T09:42:09.867Z,80.11
2017-06-13T09:43:11.301Z,82.14
2017-06-13T09:44:12.735Z,83.39
2017-06-13T09:45:14.172Z,82.52
2017-06-13T09:46:15.610Z,82.23
2017-06-13T09:47:17.052Z,79.05
2017-06-13T09:48:18.490Z,79.38
2017-06-13T09:49:19.922Z,79.86
2017-06-13T09:50:21.353Z,79.96
2017-06-13T09:51:22.786Z,80.25
2017-06-13T09:52:24.222Z,80.15
2017-06-13T09:53:25.661Z,78.71
2017-06-13T09:54:27.102Z,78.94
2017-06-13T09:55:28.539Z,76.01
2017-06-13T09:56:29.988Z,78.03
2017-06-13T09:57:31.416Z,78.90
2017-06-13T09:58:32.854Z,79.77
2017-06-13T09:59:34.290Z,77.17
2017-06-13T10:00:35.722Z,76.17
2017-06-13T10:01:37.159Z,75.56
2017-06-13T10:02:38.589Z,76.14
2017-06-13T10:03:40.019Z,77.48
2017-06-13T10:04:41.448Z,77.00
2017-06-13T10:05:42.885Z,75.56
2017-06-13T10:06:44.323Z,74.25
2017-06-13T10:07:45.759Z,75.84
2017-06-13T10:08:47.188Z,74.30
2017-06-13T10:09:48.618Z,76.23
2017-06-13T10:10:50.054Z,76.57
2017-06-13T10:11:51.497Z,76.32
2017-06-13T10:12:52.922Z,76.29
2017-06-13T10:13:54.356Z,76.19
2017-06-13T10:14:55.789Z,76.09
2017-06-13T10:15:57.225Z,75.32
2017-06-13T10:16:58.662Z,75.81
2017-06-13T10:18:00.095Z,75.84
2017-06-13T10:19:01.531Z,76.61
2017-06-13T10:20:02.968Z,75.94
2017-06-13T10:21:04.409Z,75.40
2017-06-13T10:22:05.844Z,74.82
2017-06-13T10:23:07.285Z,72.52
2017-06-13T10:24:08.721Z,72.07
2017-06-13T10:25:10.161Z,73.61
2017-06-13T10:26:11.598Z,73.38
2017-06-13T10:27:13.036Z,73.38
2017-06-13T10:28:14.464Z,73.47
2017-06-13T10:29:15.899Z,74.44
2017-06-13T10:30:17.362Z,74.05
2017-06-13T10:31:18.799Z,75.11
2017-06-13T10:32:20.230Z,73.57
2017-06-13T10:33:21.671Z,74.34
2017-06-13T10:34:23.110Z,73.92
2017-06-13T10:35:24.538Z,74.40
2017-06-13T10:36:25.993Z,74.40
2017-06-13T10:37:27.434Z,72.96
2017-06-13T10:38:28.862Z,72.77
2017-06-13T10:39:30.289Z,73.83
2017-06-13T10:40:31.731Z,73.35
2017-06-13T10:41:33.160Z,73.09
2017-06-13T10:42:34.600Z,73.38
2017-06-13T10:43:36.031Z,73.19
2017-06-13T10:44:37.463Z,73.00
2017-06-13T10:45:38.906Z,72.45
2017-06-13T10:46:40.345Z,73.51
2017-06-13T10:47:41.793Z,73.61
2017-06-13T10:48:43.231Z,72.65
2017-06-13T10:49:44.663Z,71.69
2017-06-13T10:50:46.098Z,71.49
2017-06-13T10:51:47.530Z,71.97
2017-06-13T10:52:48.983Z,71.17
2017-06-13T10:53:50.419Z,71.26
2017-06-13T10:54:51.862Z,71.11
2017-06-13T10:55:53.292Z,70.24
2017-06-13T10:56:54.734Z,69.63
2017-06-13T10:57:56.169Z,70.78
2017-06-13T10:58:57.618Z,71.36
2017-06-13T10:59:59.054Z,71.94
2017-06-13T11:01:00.479Z,71.55
2017-06-13T11:02:01.918Z,70.40
2017-06-13T11:03:03.362Z,73.19
2017-06-13T11:04:04.796Z,71.36
2017-06-13T11:05:06.231Z,71.08
2017-06-13T11:06:07.669Z,72.23
2017-06-13T11:07:09.107Z,71.01
2017-06-13T11:08:10.541Z,70.50
2017-06-13T11:09:11.981Z,70.50
2017-06-13T11:10:13.419Z,71.30
2017-06-13T11:11:14.845Z,70.92
2017-06-13T11:12:16.292Z,69.28
2017-06-13T11:13:17.734Z,72.17
2017-06-13T11:14:19.169Z,72.26
2017-06-13T11:15:20.615Z,72.84
2017-06-13T11:16:22.054Z,71.01
2017-06-13T11:17:23.490Z,69.57
2017-06-13T11:18:24.931Z,69.85
2017-06-13T11:19:26.367Z,69.18
2017-06-13T11:20:27.802Z,68.93
2017-06-13T11:21:29.232Z,69.70
2017-06-13T11:22:30.675Z,69.31
2017-06-13T11:23:32.110Z,68.35
2017-06-13T11:24:33.544Z,71.14
2017-06-13T11:25:34.973Z,70.09
2017-06-13T11:26:36.408Z,69.79
2017-06-13T11:27:37.844Z,68.16
2017-06-13T11:28:39.269Z,71.04
2017-06-13T11:29:40.706Z,70.18
2017-06-13T11:30:42.143Z,66.75
2017-06-13T11:31:43.579Z,69.12
2017-06-13T11:32:45.025Z,68.84
2017-06-13T11:33:46.454Z,69.18
2017-06-13T11:34:47.885Z,67.93
2017-06-13T11:35:49.322Z,69.47
2017-06-13T11:36:50.759Z,70.24
2017-06-13T11:37:52.186Z,71.40
2017-06-13T11:38:53.618Z,69.85
2017-06-13T11:39:55.057Z,68.86
2017-06-13T11:40:56.480Z,70.30
2017-06-13T11:41:57.910Z,68.96
2017-06-13T11:42:59.348Z,69.82
2017-06-13T11:44:00.781Z,72.45
2017-06-13T11:45:02.214Z,71.11
2017-06-13T11:46:03.647Z,71.26
2017-06-13T11:47:05.081Z,70.82
2017-06-13T11:48:06.521Z,69.85
2017-06-13T11:49:07.955Z,72.74
2017-06-13T11:50:09.388Z,69.12
2017-06-13T11:51:10.820Z,70.86
2017-06-13T11:52:12.250Z,71.24
2017-06-13T11:53:13.688Z,71.72
2017-06-13T11:54:15.125Z,69.64
2017-06-13T11:55:16.551Z,70.31
2017-06-13T11:56:17.989Z,70.12
2017-06-13T11:57:19.415Z,70.60
2017-06-13T11:58:20.856Z,67.97
2017-06-13T11:59:22.291Z,69.79
2017-06-13T12:00:23.729Z,68.06
2017-06-13T12:01:25.166Z,71.04
2017-06-13T12:02:26.601Z,71.14
2017-06-13T12:03:28.040Z,71.24
2017-06-13T12:04:29.475Z,67.97
2017-06-13T12:05:30.906Z,69.06
2017-06-13T12:06:32.338Z,68.99
2017-06-13T12:07:33.769Z,69.82
2017-06-13T12:08:35.204Z,68.96
2017-06-13T12:09:36.635Z,68.35
2017-06-13T12:10:38.072Z,70.11
2017-06-13T12:11:39.506Z,70.11
2017-06-13T12:12:40.936Z,69.92
2017-06-13T12:13:42.379Z,70.50
2017-06-13T12:14:43.808Z,70.01
2017-06-13T12:15:45.263Z,69.92
2017-06-13T12:16:46.698Z,70.46
2017-06-13T12:17:48.129Z,71.23
2017-06-13T12:18:49.566Z,72.42
2017-06-13T12:19:50.998Z,73.19
2017-06-13T12:20:52.432Z,73.09
2017-06-13T12:21:53.858Z,72.52
2017-06-13T12:22:55.299Z,71.14
2017-06-13T12:23:56.746Z,71.33
2017-06-13T12:24:58.178Z,72.23
2017-06-13T12:25:59.659Z,71.91
2017-06-13T12:27:01.113Z,72.03
2017-06-13T12:28:02.542Z,71.46
2017-06-13T12:29:03.979Z,71.78
2017-06-13T12:30:05.418Z,71.69
2017-06-13T12:31:06.860Z,74.48
2017-06-13T12:32:08.297Z,71.46
2017-06-13T12:33:09.723Z,71.84
2017-06-13T12:34:11.168Z,72.36
2017-06-13T12:35:12.601Z,71.59
2017-06-13T12:36:14.033Z,75.38
2017-06-13T12:37:15.503Z,71.87
2017-06-13T12:38:16.947Z,72.88
2017-06-13T12:39:18.380Z,71.81
2017-06-13T12:40:19.819Z,68.84
2017-06-13T12:41:21.267Z,69.60
2017-06-13T12:42:22.713Z,69.47
2017-06-13T12:43:24.147Z,69.76
2017-06-13T12:44:25.587Z,70.37
2017-06-13T12:45:27.021Z,69.70
2017-06-13T12:46:28.460Z,69.64
2017-06-13T12:47:29.898Z,68.58
2017-06-13T12:48:31.343Z,69.57
2017-06-13T12:49:32.782Z,68.38
2017-06-13T12:50:34.215Z,68.93
2017-06-13T12:51:35.660Z,67.10
2017-06-13T12:52:37.105Z,67.19
2017-06-13T12:53:38.541Z,69.12
2017-06-13T12:54:39.983Z,68.70
2017-06-13T12:55:41.422Z,68.06
2017-06-13T12:56:42.872Z,68.93
2017-06-13T12:57:44.313Z,70.24
2017-06-13T12:58:45.754Z,69.22
2017-06-13T12:59:47.213Z,69.79
2017-06-13T13:00:48.657Z,69.09
2017-06-13T13:01:50.091Z,70.53
2017-06-13T13:02:51.533Z,71.40
2017-06-13T13:03:53.099Z,70.82
2017-06-13T13:04:54.531Z,70.53
2017-06-13T13:05:55.965Z,68.93
2017-06-13T13:06:57.424Z,70.28
2017-06-13T13:07:58.861Z,70.34
2017-06-13T13:09:00.298Z,70.24
2017-06-13T13:10:01.736Z,69.85
2017-06-13T13:11:03.170Z,70.43